createdAt,value
2017-12-13T00:02:27.766Z,79.65
2017-12-13T00:04:55.234Z,79.81
2017-12-13T00:07:22.627Z,80.17
2017-12-13T00:09:50.055Z,80.64
2017-12-13T00:12:17.490Z,80.90
2017-12-13T00:14:44.918Z,80.80
2017-12-13T00:17:12.310Z,80.27
2017-12-13T00:19:39.738Z,80.21
2017-12-13T00:22:07.123Z,79.89
2017-12-13T00:24:34.601Z,79.44
2017-12-13T00:27:02.128Z,79.04
2017-12-13T00:29:29.646Z,78.57
2017-12-13T00:31:57.525Z,78.02
2017-12-13T00:34:24.958Z,78.45
2017-12-13T00:36:52.358Z,79.00
2017-12-13T00:39:20.522Z,78.80
2017-12-13T00:41:47.950Z,78.84
2017-12-13T00:44:15.537Z,78.92
2017-12-13T00:46:42.938Z,79.13
2017-12-13T00:49:10.386Z,79.15
2017-12-13T00:51:37.814Z,79.10
2017-12-13T00:54:05.194Z,78.88
2017-12-13T00:56:32.731Z,78.50
2017-12-13T00:59:00.272Z,77.98
2017-12-13T01:01:27.799Z,77.46
2017-12-13T01:03:55.338Z,77.45
2017-12-13T01:06:22.761Z,76.95
2017-12-13T01:08:50.157Z,76.87
2017-12-13T01:11:17.657Z,77.11
2017-12-13T01:13:45.053Z,77.43
2017-12-13T01:16:12.515Z,77.20
2017-12-13T01:18:39.907Z,76.92
2017-12-13T01:21:07.347Z,77.10
2017-12-13T01:23:34.770Z,76.46
2017-12-13T01:26:02.271Z,76.63
2017-12-13T01:28:30.032Z,76.75
2017-12-13T01:30:57.517Z,76.90
2017-12-13T01:33:24.909Z,76.58
2017-12-13T01:35:59.424Z,76.33
2017-12-13T01:38:27.348Z,76.63
2017-12-13T01:40:54.886Z,76.47
2017-12-13T01:43:22.273Z,76.66
2017-12-13T01:45:49.702Z,76.44
2017-12-13T01:48:17.162Z,76.15
2017-12-13T01:50:44.596Z,75.96
2017-12-13T01:53:12.087Z,76.01
2017-12-13T01:55:39.517Z,75.64
2017-12-13T01:58:06.904Z,75.26
2017-12-13T02:00:34.385Z,75.47
2017-12-13T02:03:01.999Z,76.25
2017-12-13T02:05:29.579Z,76.13
2017-12-13T02:07:57.034Z,76.39
2017-12-13T02:10:24.482Z,77.30
2017-12-13T02:12:51.862Z,76.88
2017-12-13T02:15:19.303Z,77.07
2017-12-13T02:17:46.843Z,77.34
2017-12-13T02:20:14.254Z,77.79
2017-12-13T02:25:14.405Z,78.45
2017-12-13T02:27:41.826Z,78.17
2017-12-13T02:30:09.223Z,78.27
2017-12-13T02:32:36.654Z,77.89
2017-12-13T02:35:04.065Z,77.84
2017-12-13T02:37:31.622Z,78.13
2017-12-13T02:40:10.892Z,77.11
2017-12-13T02:42:38.319Z,77.76
2017-12-13T02:45:05.784Z,77.98
2017-12-13T02:47:33.390Z,78.03
2017-12-13T02:50:00.994Z,76.73
2017-12-13T02:52:28.994Z,76.54
2017-12-13T02:54:56.424Z,76.30
2017-12-13T02:57:23.917Z,75.94
2017-12-13T02:59:51.317Z,76.21
2017-12-13T03:02:18.822Z,76.49
2017-12-13T03:04:46.261Z,76.29
2017-12-13T03:07:13.693Z,75.74
2017-12-13T03:09:41.099Z,76.20
2017-12-13T03:12:08.551Z,76.81
2017-12-13T03:14:35.951Z,76.66
2017-12-13T03:17:03.544Z,76.04
2017-12-13T03:19:31.149Z,76.38
2017-12-13T03:21:58.982Z,76.58
2017-12-13T03:24:26.394Z,75.98
2017-12-13T03:26:53.981Z,76.03
2017-12-13T03:29:21.446Z,76.07
2017-12-13T03:31:48.911Z,75.81
2017-12-13T03:34:16.323Z,75.85
2017-12-13T03:36:43.861Z,75.69
2017-12-13T03:39:11.260Z,75.50
2017-12-13T03:41:38.650Z,75.02
2017-12-13T03:44:07.088Z,75.35
2017-12-13T03:46:34.478Z,74.58
2017-12-13T03:49:01.959Z,74.81
2017-12-13T03:51:29.565Z,75.27
2017-12-13T03:53:57.025Z,75.11
2017-12-13T03:56:24.414Z,74.69
2017-12-13T03:58:51.862Z,74.50
2017-12-13T04:01:19.312Z,74.42
2017-12-13T04:03:46.832Z,74.32
2017-12-13T04:06:14.314Z,74.15
2017-12-13T04:08:41.781Z,73.68
2017-12-13T04:11:09.180Z,74.11
2017-12-13T04:13:36.622Z,73.79
2017-12-13T04:16:04.043Z,73.42
2017-12-13T04:18:31.578Z,73.18
2017-12-13T04:20:59.139Z,73.77
2017-12-13T04:23:26.714Z,73.76
2017-12-13T04:25:54.106Z,73.91
2017-12-13T04:28:21.525Z,73.52
2017-12-13T04:30:49.057Z,74.09
2017-12-13T04:33:16.518Z,73.84
2017-12-13T04:35:43.906Z,73.26
2017-12-13T04:38:11.334Z,73.31
2017-12-13T04:40:38.718Z,73.06
2017-12-13T04:43:06.110Z,72.99
2017-12-13T04:45:33.638Z,73.05
2017-12-13T04:48:01.284Z,73.13
2017-12-13T04:50:29.026Z,72.97
2017-12-13T04:52:56.427Z,72.75
2017-12-13T04:55:23.910Z,72.96
2017-12-13T04:57:51.302Z,72.78
2017-12-13T05:00:18.788Z,72.04
2017-12-13T05:02:46.251Z,72.24
2017-12-13T05:05:13.699Z,71.82
2017-12-13T05:07:41.087Z,71.90
2017-12-13T05:10:08.533Z,72.42
2017-12-13T05:12:35.953Z,72.03
2017-12-13T05:15:03.465Z,71.83
2017-12-13T05:17:31.097Z,71.46
2017-12-13T05:19:58.653Z,72.02
2017-12-13T05:22:26.042Z,71.46
2017-12-13T05:24:53.472Z,72.02
2017-12-13T05:27:20.923Z,72.08
2017-12-13T05:29:48.378Z,72.25
2017-12-13T05:32:15.871Z,72.39
2017-12-13T05:34:43.341Z,72.62
2017-12-13T05:37:10.730Z,72.16
2017-12-13T05:39:38.156Z,72.04
2017-12-13T05:42:05.555Z,72.01
2017-12-13T05:44:33.086Z,71.86
2017-12-13T05:47:00.596Z,71.37
2017-12-13T05:49:29.080Z,71.99
2017-12-13T05:51:56.656Z,72.21
2017-12-13T05:54:24.067Z,71.90
2017-12-13T05:56:51.588Z,72.19
2017-12-13T05:59:19.260Z,72.40
2017-12-13T06:01:46.703Z,72.07
2017-12-13T06:04:14.087Z,72.03
2017-12-13T06:06:41.588Z,72.28
2017-12-13T06:09:09.094Z,71.87
2017-12-13T06:11:36.526Z,71.39
2017-12-13T06:14:03.931Z,71.18
2017-12-13T06:16:31.448Z,71.60
2017-12-13T06:18:58.962Z,71.80
2017-12-13T06:21:26.506Z,71.95
2017-12-13T06:23:54.051Z,72.28
2017-12-13T06:26:21.625Z,71.87
2017-12-13T06:28:49.168Z,71.97
2017-12-13T06:31:16.713Z,72.38
2017-12-13T06:33:44.187Z,72.42
2017-12-13T06:36:11.670Z,71.82
2017-12-13T06:38:39.074Z,71.86
2017-12-13T06:41:06.516Z,72.44
2017-12-13T06:43:34.130Z,72.21
2017-12-13T06:46:01.809Z,72.24
2017-12-13T06:48:33.535Z,72.62
2017-12-13T06:51:00.990Z,72.26
2017-12-13T06:53:28.515Z,72.13
2017-12-13T06:55:56.044Z,71.90
2017-12-13T06:58:23.458Z,71.81
2017-12-13T07:00:50.946Z,71.75
2017-12-13T07:03:18.347Z,71.67
2017-12-13T07:05:45.732Z,71.91
2017-12-13T07:08:13.311Z,71.89
2017-12-13T07:10:40.708Z,72.02
2017-12-13T07:13:08.180Z,72.31
2017-12-13T07:15:35.570Z,72.51
2017-12-13T07:18:03.018Z,72.66
2017-12-13T07:20:30.555Z,72.70
2017-12-13T07:22:58.014Z,72.20
2017-12-13T07:25:25.430Z,72.86
2017-12-13T07:27:52.866Z,72.54
2017-12-13T07:30:20.261Z,72.42
2017-12-13T07:32:47.696Z,72.52
2017-12-13T07:35:15.086Z,72.44
2017-12-13T07:37:42.524Z,72.42
2017-12-13T07:40:09.922Z,72.24
2017-12-13T07:42:37.357Z,71.93
2017-12-13T07:45:04.758Z,72.11
2017-12-13T07:47:32.271Z,71.58
2017-12-13T07:49:59.710Z,71.03
2017-12-13T07:52:27.162Z,70.62
2017-12-13T07:54:54.567Z,70.31
2017-12-13T07:57:21.992Z,70.29
2017-12-13T07:59:49.390Z,71.10
2017-12-13T08:02:16.840Z,69.60
2017-12-13T08:04:44.236Z,69.25
2017-12-13T08:07:11.698Z,69.17
2017-12-13T08:09:39.090Z,69.82
2017-12-13T08:12:06.530Z,68.74
2017-12-13T08:14:33.930Z,69.33
2017-12-13T08:17:01.356Z,69.34
2017-12-13T08:19:28.874Z,67.52
2017-12-13T08:21:56.324Z,66.97
2017-12-13T08:24:23.786Z,67.34
2017-12-13T08:26:51.182Z,69.20
2017-12-13T08:29:18.743Z,67.13
2017-12-13T08:31:46.286Z,66.94
2017-12-13T08:34:13.722Z,66.12
2017-12-13T08:36:41.115Z,65.27
2017-12-13T08:39:08.542Z,68.71
2017-12-13T08:41:36.002Z,65.67
2017-12-13T08:44:03.466Z,66.59
2017-12-13T08:46:30.917Z,66.75
2017-12-13T08:48:58.415Z,64.90
2017-12-13T08:51:25.817Z,64.65
2017-12-13T08:53:53.266Z,62.70
2017-12-13T08:56:20.678Z,62.88
2017-12-13T08:58:48.134Z,62.48
2017-12-13T09:01:15.654Z,61.35
2017-12-13T09:03:43.094Z,61.71
2017-12-13T09:06:10.523Z,61.44
2017-12-13T09:08:37.938Z,61.28
2017-12-13T09:11:05.352Z,60.46
2017-12-13T09:13:32.798Z,60.62
2017-12-13T09:16:00.267Z,60.14
2017-12-13T09:18:27.879Z,59.89
2017-12-13T09:20:55.411Z,59.87
2017-12-13T09:23:22.861Z,60.62
2017-12-13T09:25:50.257Z,59.61
2017-12-13T09:28:17.679Z,59.65
2017-12-13T09:30:45.114Z,59.74
2017-12-13T09:33:12.533Z,59.48
2017-12-13T09:35:40.018Z,59.05
2017-12-13T09:38:07.436Z,59.42
2017-12-13T09:40:34.870Z,59.03
2017-12-13T09:43:02.297Z,59.58
2017-12-13T09:45:29.785Z,58.40
2017-12-13T09:47:57.420Z,58.32
2017-12-13T09:50:24.941Z,59.03
2017-12-13T09:52:52.414Z,58.06
2017-12-13T09:55:19.857Z,58.12
2017-12-13T09:57:47.352Z,57.84
2017-12-13T10:00:14.817Z,57.34
2017-12-13T10:02:42.240Z,57.45
2017-12-13T10:05:09.757Z,56.88
2017-12-13T10:07:37.231Z,57.30
2017-12-13T10:10:04.662Z,57.12
2017-12-13T10:12:32.079Z,56.48
2017-12-13T10:14:59.843Z,56.35
2017-12-13T10:17:27.493Z,56.68
2017-12-13T10:19:54.931Z,55.87
2017-12-13T10:22:22.319Z,55.50
2017-12-13T10:24:49.761Z,55.41
2017-12-13T10:27:17.185Z,54.93
2017-12-13T10:29:44.688Z,55.32
2017-12-13T10:32:12.134Z,55.15
2017-12-13T10:34:39.529Z,54.26
2017-12-13T10:37:06.980Z,54.64
2017-12-13T10:39:34.390Z,54.20
2017-12-13T10:42:01.839Z,54.49
2017-12-13T10:44:29.373Z,54.21
2017-12-13T10:46:56.850Z,54.18
2017-12-13T10:49:24.314Z,53.48
2017-12-13T10:51:51.783Z,54.18
2017-12-13T10:54:19.236Z,53.76
2017-12-13T10:56:46.754Z,53.81
2017-12-13T10:59:14.158Z,54.36
2017-12-13T11:01:41.664Z,53.87
2017-12-13T11:04:09.065Z,53.97
2017-12-13T11:06:36.605Z,53.60
2017-12-13T11:09:04.007Z,54.70
2017-12-13T11:11:31.495Z,53.22
2017-12-13T11:13:58.924Z,53.18
2017-12-13T11:16:26.379Z,53.33
2017-12-13T11:18:53.843Z,52.90
2017-12-13T11:21:21.330Z,53.21
2017-12-13T11:23:48.802Z,52.85
2017-12-13T11:26:16.268Z,52.36
2017-12-13T11:28:43.657Z,53.02
2017-12-13T11:31:11.101Z,53.59
2017-12-13T11:33:38.490Z,53.07
2017-12-13T11:36:05.938Z,53.23
2017-12-13T11:38:33.514Z,53.24
2017-12-13T11:41:00.944Z,52.94
2017-12-13T11:43:28.549Z,53.08
2017-12-13T11:45:56.017Z,53.42
2017-12-13T11:48:23.487Z,52.91
2017-12-13T11:50:50.968Z,53.11
2017-12-13T11:53:18.429Z,52.93
2017-12-13T11:55:45.919Z,52.58
2017-12-13T11:58:13.383Z,52.95
2017-12-13T12:00:40.859Z,52.91
2017-12-13T12:03:08.314Z,52.83
2017-12-13T12:05:35.721Z,52.62
2017-12-13T12:08:03.315Z,52.54
2017-12-13T12:10:30.769Z,52.79
2017-12-13T12:12:58.261Z,52.53
2017-12-13T12:15:25.679Z,52.42
2017-12-13T12:17:53.136Z,52.43
2017-12-13T12:20:20.607Z,52.35
2017-12-13T12:22:48.080Z,52.81
2017-12-13T12:25:15.475Z,52.58
2017-12-13T12:27:42.928Z,52.38
2017-12-13T12:30:10.338Z,52.52
2017-12-13T12:32:37.807Z,53.12
2017-12-13T12:35:05.328Z,53.06
2017-12-13T12:37:32.739Z,53.20
2017-12-13T12:40:00.565Z,53.60
2017-12-13T12:42:28.019Z,53.29
2017-12-13T12:44:55.485Z,53.67
2017-12-13T12:47:22.894Z,53.94
2017-12-13T12:49:50.363Z,54.22
2017-12-13T12:52:17.766Z,53.74
2017-12-13T12:54:45.208Z,54.35
2017-12-13T12:57:12.646Z,54.26
2017-12-13T12:59:40.113Z,54.67
2017-12-13T13:02:07.504Z,54.54
2017-12-13T13:04:35.059Z,54.75
2017-12-13T13:07:02.480Z,55.11
2017-12-13T13:09:29.996Z,54.53
2017-12-13T13:11:57.492Z,55.26
2017-12-13T13:14:24.942Z,54.23
2017-12-13T13:16:52.467Z,55.04
2017-12-13T13:19:19.935Z,54.88
2017-12-13T13:21:47.357Z,54.80
2017-12-13T13:24:14.819Z,54.66
2017-12-13T13:26:42.218Z,54.84
2017-12-13T13:29:09.658Z,54.63
2017-12-13T13:31:37.087Z,54.56
2017-12-13T13:34:04.496Z,54.79
2017-12-13T13:36:32.010Z,54.75
2017-12-13T13:38:59.468Z,55.21
2017-12-13T13:41:26.965Z,54.75
2017-12-13T13:43:54.400Z,54.40
2017-12-13T13:46:21.837Z,54.38
2017-12-13T13:48:49.233Z,54.63
2017-12-13T13:51:16.716Z,54.97
2017-12-13T13:53:44.188Z,54.68
2017-12-13T13:56:11.693Z,54.63
2017-12-13T13:58:39.111Z,54.45
2017-12-13T14:01:06.600Z,54.81
2017-12-13T14:03:34.049Z,54.38
2017-12-13T14:06:01.636Z,54.53
2017-12-13T14:08:29.071Z,55.02
2017-12-13T14:10:56.554Z,53.71
2017-12-13T14:13:23.994Z,53.68
2017-12-13T14:15:51.443Z,53.42
2017-12-13T14:18:18.919Z,53.53
2017-12-13T14:20:46.345Z,53.41
2017-12-13T14:23:13.853Z,52.76
2017-12-13T14:25:41.324Z,53.43
2017-12-13T14:28:08.795Z,53.91
2017-12-13T14:30:36.195Z,54.09
2017-12-13T14:33:03.760Z,53.55
2017-12-13T14:35:31.247Z,53.66
2017-12-13T14:37:58.753Z,53.41
2017-12-13T14:40:26.184Z,53.89
2017-12-13T14:42:53.686Z,54.19
2017-12-13T14:45:21.172Z,54.96
2017-12-13T14:47:48.648Z,54.87
2017-12-13T14:50:16.150Z,55.98
2017-12-13T14:52:43.609Z,56.80
2017-12-13T14:55:11.010Z,57.49
2017-12-13T14:57:38.454Z,56.52
2017-12-13T15:00:05.953Z,59.41
2017-12-13T15:02:33.427Z,58.40
2017-12-13T15:05:00.869Z,58.89
2017-12-13T15:07:28.337Z,59.43
2017-12-13T15:09:55.768Z,64.71
2017-12-13T15:12:23.222Z,59.79
2017-12-13T15:14:50.771Z,60.15
2017-12-13T15:17:18.214Z,61.15
2017-12-13T15:19:45.710Z,61.57
2017-12-13T15:22:13.177Z,62.25
2017-12-13T15:24:40.700Z,61.89
2017-12-13T15:27:08.127Z,63.10
2017-12-13T15:29:35.611Z,63.39
2017-12-13T15:32:03.053Z,64.31
2017-12-13T15:34:30.621Z,66.01
2017-12-13T15:36:58.139Z,67.97
2017-12-13T15:39:25.598Z,70.70
2017-12-13T15:41:53.087Z,72.51
2017-12-13T15:44:20.484Z,73.71
2017-12-13T15:46:47.927Z,75.08
2017-12-13T15:49:15.327Z,76.56
2017-12-13T15:51:42.903Z,76.41
2017-12-13T15:54:10.396Z,77.12
2017-12-13T15:56:37.868Z,78.19
2017-12-13T15:59:05.273Z,78.50
2017-12-13T16:01:32.776Z,78.29
2017-12-13T16:04:00.304Z,79.55
2017-12-13T16:06:27.739Z,79.07
2017-12-13T16:08:55.212Z,79.36
2017-12-13T16:11:22.695Z,79.53
2017-12-13T16:13:50.261Z,79.54
2017-12-13T16:16:17.826Z,79.88
2017-12-13T16:18:45.281Z,79.83
2017-12-13T16:21:12.766Z,80.34
2017-12-13T16:23:40.205Z,80.48
2017-12-13T16:26:07.697Z,80.59
2017-12-13T16:28:35.152Z,80.67
2017-12-13T16:31:02.575Z,80.25
2017-12-13T16:33:30.063Z,80.24
2017-12-13T16:35:57.496Z,80.34
2017-12-13T16:38:24.968Z,80.19
2017-12-13T16:40:52.414Z,80.13
2017-12-13T16:43:19.889Z,79.93
2017-12-13T16:45:47.361Z,80.28
2017-12-13T16:48:14.899Z,80.24
2017-12-13T16:50:42.349Z,80.04
2017-12-13T16:53:09.924Z,80.05
2017-12-13T16:55:37.308Z,79.75
2017-12-13T16:58:04.848Z,80.20
2017-12-13T17:00:32.285Z,79.87
2017-12-13T17:02:59.793Z,79.80
2017-12-13T17:05:27.240Z,80.04
2017-12-13T17:07:54.693Z,79.79
2017-12-13T17:10:22.209Z,79.88
2017-12-13T17:12:49.742Z,79.43
2017-12-13T17:15:17.167Z,79.44
2017-12-13T17:17:44.615Z,79.66
2017-12-13T17:20:12.043Z,79.58
2017-12-13T17:22:39.483Z,79.10
2017-12-13T17:25:06.949Z,79.31
2017-12-13T17:27:34.413Z,79.47
2017-12-13T17:30:01.913Z,79.44
2017-12-13T17:32:29.418Z,79.58
2017-12-13T17:34:56.879Z,80.15
2017-12-13T17:37:24.333Z,80.29
2017-12-13T17:39:51.814Z,80.58
2017-12-13T17:42:19.249Z,80.63
2017-12-13T17:44:46.752Z,81.30
2017-12-13T17:47:14.141Z,80.91
2017-12-13T17:49:41.636Z,81.27
2017-12-13T17:52:09.067Z,80.92
2017-12-13T17:54:36.551Z,81.08
2017-12-13T17:57:03.978Z,81.14
2017-12-13T17:59:31.468Z,81.35
2017-12-13T18:01:59.157Z,81.24
2017-12-13T18:04:26.594Z,81.03
2017-12-13T18:06:54.035Z,81.27
2017-12-13T18:09:21.497Z,81.18
2017-12-13T18:11:49.852Z,80.90
2017-12-13T18:14:17.337Z,81.19
2017-12-13T18:16:44.738Z,80.81
2017-12-13T18:19:12.372Z,80.96
2017-12-13T18:21:39.764Z,80.65
2017-12-13T18:24:07.334Z,80.53
2017-12-13T18:26:34.752Z,80.60
2017-12-13T18:29:02.251Z,80.66
2017-12-13T18:31:29.777Z,80.59
2017-12-13T18:33:57.226Z,80.83
2017-12-13T18:36:24.734Z,80.69
2017-12-13T18:38:52.185Z,80.66
2017-12-13T18:41:19.660Z,80.61
2017-12-13T18:43:47.097Z,80.82
2017-12-13T18:46:14.583Z,80.50
2017-12-13T18:48:42.042Z,80.83
2017-12-13T18:51:09.469Z,81.04
2017-12-13T18:53:36.864Z,80.86
2017-12-13T18:56:04.454Z,81.42
2017-12-13T18:58:31.923Z,81.88
2017-12-13T19:00:59.493Z,82.20
2017-12-13T19:03:26.977Z,82.27
2017-12-13T19:05:54.538Z,82.55
2017-12-13T19:08:21.968Z,82.50
2017-12-13T19:10:49.480Z,82.55
2017-12-13T19:13:16.952Z,82.43
2017-12-13T19:15:44.526Z,82.32
2017-12-13T19:18:11.979Z,82.05
2017-12-13T19:20:39.475Z,81.78
2017-12-13T19:23:06.946Z,80.80
2017-12-13T19:25:34.412Z,80.53
2017-12-13T19:28:01.934Z,80.44
2017-12-13T19:30:29.463Z,80.03
2017-12-13T19:32:56.944Z,79.66
2017-12-13T19:35:24.558Z,79.55
2017-12-13T19:37:52.037Z,79.16
2017-12-13T19:40:19.455Z,79.35
2017-12-13T19:42:46.882Z,79.17
2017-12-13T19:45:14.427Z,79.31
2017-12-13T19:47:41.921Z,79.10
2017-12-13T19:50:09.353Z,78.76
2017-12-13T19:52:36.872Z,78.52
2017-12-13T19:55:04.311Z,78.66
2017-12-13T19:57:31.798Z,78.86
2017-12-13T19:59:59.258Z,78.40
2017-12-13T20:02:26.678Z,77.87
2017-12-13T20:04:54.122Z,78.19
2017-12-13T20:07:21.709Z,77.85
2017-12-13T20:09:49.153Z,77.89
2017-12-13T20:12:16.704Z,77.50
2017-12-13T20:14:44.177Z,77.28
2017-12-13T20:17:11.756Z,77.23
2017-12-13T20:19:39.257Z,77.13
2017-12-13T20:22:06.703Z,77.04
2017-12-13T20:24:34.196Z,77.14
2017-12-13T20:27:01.681Z,77.21
2017-12-13T20:29:29.299Z,77.83
2017-12-13T20:31:56.768Z,77.83
2017-12-13T20:34:24.259Z,78.08
2017-12-13T20:36:51.690Z,78.57
2017-12-13T20:39:20.490Z,78.78
2017-12-13T20:41:47.883Z,78.86
2017-12-13T20:44:15.792Z,78.47
2017-12-13T20:46:43.259Z,79.03
2017-12-13T20:49:10.730Z,78.82
2017-12-13T20:51:38.173Z,78.82
2017-12-13T20:54:05.741Z,78.25
2017-12-13T20:56:33.227Z,78.60
2017-12-13T20:59:00.750Z,78.60
2017-12-13T21:01:28.251Z,78.98
2017-12-13T21:03:55.742Z,79.39
2017-12-13T21:06:23.131Z,79.46
2017-12-13T21:08:50.725Z,79.65
2017-12-13T21:11:18.258Z,79.69
2017-12-13T21:13:45.642Z,79.93
2017-12-13T21:16:13.138Z,79.97
2017-12-13T21:18:40.576Z,79.95
2017-12-13T21:21:08.005Z,80.08
2017-12-13T21:23:35.618Z,79.49
2017-12-13T21:26:03.085Z,79.31
2017-12-13T21:28:30.610Z,79.17
2017-12-13T21:30:58.200Z,79.53
2017-12-13T21:33:25.702Z,79.16
2017-12-13T21:35:53.189Z,79.03
2017-12-13T21:38:20.650Z,78.83
2017-12-13T21:40:48.224Z,79.38
2017-12-13T21:43:15.696Z,79.94
2017-12-13T21:45:43.187Z,81.44
2017-12-13T21:48:10.628Z,81.79
2017-12-13T21:50:38.214Z,82.87
2017-12-13T21:53:05.597Z,83.20
2017-12-13T21:55:33.170Z,83.60
2017-12-13T21:58:00.753Z,84.09
2017-12-13T22:00:28.237Z,83.80
2017-12-13T22:02:55.732Z,83.53
2017-12-13T22:05:23.156Z,84.10
2017-12-13T22:07:50.696Z,83.96
2017-12-13T22:10:18.120Z,84.26
2017-12-13T22:12:45.536Z,84.84
2017-12-13T22:15:13.006Z,84.93
2017-12-13T22:17:40.428Z,85.46
2017-12-13T22:20:07.868Z,85.09
2017-12-13T22:22:35.425Z,86.02
2017-12-13T22:25:02.937Z,85.60
2017-12-13T22:27:30.432Z,85.39
2017-12-13T22:29:58.076Z,85.89
2017-12-13T22:32:25.600Z,85.85
2017-12-13T22:34:53.073Z,86.20
2017-12-13T22:37:20.536Z,85.59
2017-12-13T22:39:48.245Z,85.78
2017-12-13T22:42:15.792Z,86.00
2017-12-13T22:44:43.256Z,85.83
2017-12-13T22:47:10.721Z,86.13
2017-12-13T22:49:38.209Z,86.08
2017-12-13T22:52:05.738Z,86.08
2017-12-13T22:54:33.180Z,85.97
2017-12-13T22:57:00.637Z,85.92
2017-12-13T22:59:28.176Z,85.97
2017-12-13T23:01:55.617Z,86.26
2017-12-13T23:04:23.058Z,86.31
2017-12-13T23:06:50.491Z,85.95
2017-12-13T23:09:18.271Z,86.24
2017-12-13T23:11:45.709Z,86.48
2017-12-13T23:14:13.178Z,86.30
2017-12-13T23:16:40.599Z,86.21
2017-12-13T23:19:08.113Z,86.22
2017-12-13T23:21:35.577Z,86.08
2017-12-13T23:24:03.085Z,86.28
2017-12-13T23:26:30.606Z,86.09
2017-12-13T23:28:58.443Z,86.03
2017-12-13T23:31:26.065Z,85.83
2017-12-13T23:33:53.559Z,86.14
2017-12-13T23:36:20.938Z,85.82
2017-12-13T23:38:48.543Z,85.74
2017-12-13T23:41:16.997Z,86.08
2017-12-13T23:43:44.378Z,86.44
2017-12-13T23:46:11.807Z,86.59
2017-12-13T23:48:39.211Z,86.36
2017-12-13T23:51:06.650Z,86.35
2017-12-13T23:53:34.038Z,86.28
2017-12-13T23:56:01.676Z,86.45
2017-12-13T23:58:29.405Z,86.26
